createdAt,value
2018-05-24T00:00:36.338Z,10.20
2018-05-24T00:03:03.773Z,10.63
2018-05-24T00:05:31.616Z,10.47
2018-05-24T00:07:59.058Z,11.00
2018-05-24T00:10:26.506Z,10.70
2018-05-24T00:12:53.940Z,11.10
2018-05-24T00:15:21.383Z,10.90
2018-05-24T00:17:48.815Z,11.47
2018-05-24T00:20:17.039Z,11.23
2018-05-24T00:22:44.481Z,11.50
2018-05-24T00:25:11.927Z,10.87
2018-05-24T00:27:39.762Z,11.37
2018-05-24T00:30:07.203Z,11.90
2018-05-24T00:32:34.640Z,10.73
2018-05-24T00:35:02.087Z,11.73
2018-05-24T00:37:29.526Z,10.70
2018-05-24T00:39:56.966Z,11.23
2018-05-24T00:42:24.412Z,11.73
2018-05-24T00:44:52.612Z,11.03
2018-05-24T00:47:20.055Z,10.50
2018-05-24T00:49:47.481Z,10.90
2018-05-24T00:52:14.925Z,11.13
2018-05-24T00:54:42.420Z,11.33
2018-05-24T00:57:09.806Z,11.13
2018-05-24T00:59:37.242Z,11.20
2018-05-24T01:02:04.731Z,11.17
2018-05-24T01:04:32.167Z,11.50
2018-05-24T01:06:59.606Z,11.43
2018-05-24T01:09:27.047Z,12.10
2018-05-24T01:11:55.255Z,12.20
2018-05-24T01:14:22.695Z,11.80
2018-05-24T01:16:50.147Z,11.90
2018-05-24T01:19:17.579Z,11.27
2018-05-24T01:21:45.012Z,11.90
2018-05-24T01:24:12.848Z,12.57
2018-05-24T01:26:40.291Z,13.17
2018-05-24T01:29:07.719Z,12.50
2018-05-24T01:31:35.927Z,10.70
2018-05-24T01:34:03.362Z,11.87
2018-05-24T01:36:42.535Z,11.03
2018-05-24T01:39:09.974Z,11.23
2018-05-24T01:41:37.419Z,12.47
2018-05-24T01:44:04.866Z,10.60
2018-05-24T01:46:32.312Z,10.80
2018-05-24T01:49:00.520Z,11.73
2018-05-24T01:51:27.955Z,12.60
2018-05-24T01:53:55.395Z,12.23
2018-05-24T01:56:22.837Z,12.57
2018-05-24T01:58:50.283Z,12.53
2018-05-24T02:01:17.716Z,13.87
2018-05-24T02:03:45.160Z,13.07
2018-05-24T02:06:12.592Z,13.23
2018-05-24T02:08:40.040Z,11.80
2018-05-24T02:11:07.481Z,12.70
2018-05-24T02:13:35.694Z,13.27
2018-05-24T02:16:03.149Z,12.57
2018-05-24T02:18:30.602Z,11.70
2018-05-24T02:20:58.048Z,11.63
2018-05-24T02:23:25.497Z,11.73
2018-05-24T02:25:53.075Z,11.50
2018-05-24T02:28:20.535Z,11.90
2018-05-24T02:30:47.980Z,12.40
2018-05-24T02:33:15.433Z,13.50
2018-05-24T02:35:42.932Z,11.87
2018-05-24T02:38:11.082Z,12.90
2018-05-24T02:40:38.523Z,11.77
2018-05-24T02:43:05.971Z,12.30
2018-05-24T02:45:33.399Z,12.53
2018-05-24T02:48:01.623Z,13.37
2018-05-24T02:50:29.076Z,12.50
2018-05-24T02:52:56.514Z,13.37
2018-05-24T02:55:23.950Z,12.47
2018-05-24T02:57:52.160Z,13.70
2018-05-24T03:00:20.011Z,13.80
2018-05-24T03:02:47.441Z,11.70
2018-05-24T03:05:15.652Z,12.77
2018-05-24T03:07:43.080Z,12.40
2018-05-24T03:10:10.515Z,11.60
2018-05-24T03:12:37.949Z,13.03
2018-05-24T03:15:05.399Z,13.30
2018-05-24T03:17:32.831Z,13.30
2018-05-24T03:20:00.281Z,13.40
2018-05-24T03:22:29.073Z,12.97
2018-05-24T03:24:57.272Z,13.90
2018-05-24T03:27:24.710Z,12.03
2018-05-24T03:29:52.156Z,16.57
2018-05-24T03:32:19.578Z,13.67
2018-05-24T03:34:47.410Z,13.10
2018-05-24T03:37:14.851Z,13.40
2018-05-24T03:39:42.311Z,14.67
2018-05-24T03:42:09.750Z,14.27
2018-05-24T03:44:37.580Z,14.90
2018-05-24T03:47:05.798Z,14.93
2018-05-24T03:49:33.243Z,16.00
2018-05-24T03:52:00.757Z,14.50
2018-05-24T03:54:28.139Z,15.73
2018-05-24T03:56:55.577Z,16.70
2018-05-24T04:02:47.755Z,15.80
2018-05-24T04:05:15.198Z,16.30
2018-05-24T04:07:43.405Z,17.20
2018-05-24T04:10:10.854Z,16.30
2018-05-24T04:12:38.683Z,17.20
2018-05-24T04:15:06.126Z,16.93
2018-05-24T04:17:33.553Z,14.90
2018-05-24T04:20:00.996Z,15.70
2018-05-24T04:22:28.437Z,13.73
2018-05-24T04:24:55.886Z,14.90
2018-05-24T04:27:23.716Z,14.00
2018-05-24T04:29:51.158Z,15.60
2018-05-24T04:32:18.596Z,15.93
2018-05-24T04:34:46.051Z,14.40
2018-05-24T04:37:13.878Z,14.77
2018-05-24T04:39:41.317Z,14.30
2018-05-24T04:42:09.535Z,14.73
2018-05-24T04:44:36.978Z,16.30
2018-05-24T04:47:04.423Z,14.53
2018-05-24T04:49:31.847Z,14.20
2018-05-24T04:51:59.286Z,13.63
2018-05-24T04:54:26.726Z,14.10
2018-05-24T04:56:54.164Z,15.40
2018-05-24T04:59:21.599Z,14.83
2018-05-24T05:01:49.039Z,15.20
2018-05-24T05:04:17.248Z,14.67
2018-05-24T05:06:44.697Z,17.00
2018-05-24T05:09:12.123Z,15.50
2018-05-24T05:11:40.334Z,16.47
2018-05-24T05:14:07.790Z,16.00
2018-05-24T05:16:35.246Z,15.80
2018-05-24T05:19:02.702Z,16.73
2018-05-24T05:21:30.131Z,17.47
2018-05-24T05:23:57.572Z,17.70
2018-05-24T05:26:25.791Z,17.57
2018-05-24T05:28:53.226Z,18.50
2018-05-24T05:31:20.676Z,19.43
2018-05-24T05:33:48.102Z,17.33
2018-05-24T05:36:15.950Z,17.00
2018-05-24T05:38:43.387Z,16.00
2018-05-24T05:41:10.828Z,18.80
2018-05-24T05:43:38.270Z,17.30
2018-05-24T05:46:05.720Z,17.63
2018-05-24T05:48:33.150Z,17.60
2018-05-24T05:51:00.592Z,17.53
2018-05-24T05:53:28.052Z,16.00
2018-05-24T05:55:55.488Z,17.10
2018-05-24T05:58:22.915Z,17.17
2018-05-24T06:00:50.347Z,16.77
2018-05-24T06:03:18.559Z,17.60
2018-05-24T06:05:45.996Z,17.23
2018-05-24T06:08:13.435Z,18.67
2018-05-24T06:10:41.647Z,19.30
2018-05-24T06:13:09.868Z,18.10
2018-05-24T06:15:37.299Z,18.03
2018-05-24T06:18:04.746Z,19.93
2018-05-24T06:20:32.190Z,18.47
2018-05-24T06:22:59.642Z,18.93
2018-05-24T06:25:27.083Z,19.70
2018-05-24T06:27:54.528Z,19.97
2018-05-24T06:30:21.960Z,18.17
2018-05-24T06:32:49.396Z,17.70
2018-05-24T06:35:16.839Z,17.73
2018-05-24T06:37:44.335Z,17.20
2018-05-24T06:40:11.772Z,18.03
2018-05-24T06:42:39.216Z,18.33
2018-05-24T06:45:07.042Z,18.50
2018-05-24T06:47:34.478Z,19.30
2018-05-24T06:50:02.690Z,19.30
2018-05-24T06:52:30.133Z,19.33
2018-05-24T06:54:57.558Z,18.50
2018-05-24T06:57:25.770Z,18.90
2018-05-24T06:59:54.012Z,20.20
2018-05-24T07:02:21.426Z,18.80
2018-05-24T07:04:48.870Z,21.87
2018-05-24T07:07:16.316Z,20.20
2018-05-24T07:09:43.760Z,22.13
2018-05-24T07:12:11.192Z,21.00
2018-05-24T07:14:39.399Z,22.07
2018-05-24T07:17:06.866Z,20.77
2018-05-24T07:19:34.316Z,22.23
2018-05-24T07:22:01.759Z,21.97
2018-05-24T07:24:29.196Z,22.37
2018-05-24T07:26:57.407Z,23.00
2018-05-24T07:29:24.859Z,23.10
2018-05-24T07:31:52.307Z,23.67
2018-05-24T07:34:19.738Z,22.70
2018-05-24T07:36:47.173Z,23.10
2018-05-24T07:39:14.610Z,22.63
2018-05-24T07:41:42.055Z,21.87
2018-05-24T07:44:09.500Z,21.70
2018-05-24T07:46:36.938Z,22.90
2018-05-24T07:49:05.151Z,21.13
2018-05-24T07:51:32.593Z,21.90
2018-05-24T07:54:00.040Z,21.30
2018-05-24T07:56:27.489Z,21.20
2018-05-24T07:58:54.940Z,21.17
2018-05-24T08:01:22.363Z,22.10
2018-05-24T08:03:50.575Z,21.03
2018-05-24T08:06:18.010Z,19.80
2018-05-24T08:08:45.530Z,21.60
2018-05-24T08:11:12.908Z,20.53
2018-05-24T08:13:41.136Z,20.07
2018-05-24T08:16:08.583Z,20.20
2018-05-24T08:18:36.026Z,19.60
2018-05-24T08:21:03.485Z,19.80
2018-05-24T08:23:30.911Z,18.40
2018-05-24T08:25:58.347Z,20.00
2018-05-24T08:28:25.791Z,19.30
2018-05-24T08:30:53.231Z,20.03
2018-05-24T08:33:20.663Z,20.20
2018-05-24T08:35:48.117Z,20.57
2018-05-24T08:38:15.546Z,19.93
2018-05-24T08:40:43.028Z,19.97
2018-05-24T08:43:11.215Z,18.80
2018-05-24T08:45:38.658Z,19.73
2018-05-24T08:48:06.090Z,20.20
2018-05-24T08:50:33.528Z,19.67
2018-05-24T08:53:01.747Z,19.73
2018-05-24T08:55:29.206Z,21.40
2018-05-24T08:57:56.660Z,19.37
2018-05-24T09:00:24.867Z,19.83
2018-05-24T09:02:52.302Z,18.47
2018-05-24T09:05:19.756Z,18.67
2018-05-24T09:07:47.204Z,19.23
2018-05-24T09:10:15.799Z,20.13
2018-05-24T09:12:43.258Z,19.07
2018-05-24T09:15:10.707Z,19.30
2018-05-24T09:17:38.146Z,19.80
2018-05-24T09:20:05.594Z,20.03
2018-05-24T09:22:33.024Z,20.00
2018-05-24T09:25:00.459Z,19.53
2018-05-24T09:27:27.894Z,19.57
2018-05-24T09:29:55.343Z,19.00
2018-05-24T09:32:22.797Z,22.30
2018-05-24T09:34:50.243Z,18.17
2018-05-24T09:37:17.693Z,17.10
2018-05-24T09:39:45.122Z,18.67
2018-05-24T09:42:13.395Z,18.47
2018-05-24T09:44:40.783Z,18.93
2018-05-24T09:47:08.222Z,19.60
2018-05-24T09:49:35.660Z,19.03
2018-05-24T09:52:03.876Z,18.90
2018-05-24T09:54:31.322Z,19.10
2018-05-24T09:56:58.818Z,21.03
2018-05-24T09:59:26.263Z,20.23
2018-05-24T10:01:53.790Z,19.70
2018-05-24T10:04:21.231Z,18.20
2018-05-24T10:06:48.723Z,16.47
2018-05-24T10:09:16.177Z,17.40
2018-05-24T10:11:43.617Z,16.97
2018-05-24T10:14:11.302Z,18.17
2018-05-24T10:16:38.746Z,17.43
2018-05-24T10:19:06.193Z,16.00
2018-05-24T10:21:33.726Z,18.27
2018-05-24T10:24:01.260Z,17.00
2018-05-24T10:26:28.750Z,17.40
2018-05-24T10:28:56.186Z,16.47
2018-05-24T10:31:24.403Z,17.57
2018-05-24T10:33:51.838Z,17.70
2018-05-24T10:36:19.266Z,15.23
2018-05-24T10:38:46.722Z,13.00
2018-05-24T10:41:14.153Z,11.70
2018-05-24T10:43:41.600Z,12.33
2018-05-24T10:46:09.045Z,12.77
2018-05-24T10:48:36.496Z,11.40
2018-05-24T10:51:03.961Z,11.00
2018-05-24T10:53:31.405Z,11.87
2018-05-24T10:55:58.904Z,10.20
2018-05-24T10:58:26.312Z,10.93
2018-05-24T11:00:53.743Z,11.33
2018-05-24T11:03:21.966Z,11.17
2018-05-24T11:05:49.391Z,10.67
2018-05-24T11:08:16.836Z,9.97
2018-05-24T11:10:44.275Z,10.87
2018-05-24T11:13:12.490Z,10.20
2018-05-24T11:15:39.939Z,12.60
2018-05-24T11:18:07.432Z,12.93
2018-05-24T11:20:34.875Z,10.90
2018-05-24T11:23:02.315Z,10.63
2018-05-24T11:25:29.757Z,10.10
2018-05-24T11:27:57.192Z,8.07
2018-05-24T11:30:25.387Z,8.53
2018-05-24T11:32:52.815Z,7.60
2018-05-24T11:35:20.251Z,9.57
2018-05-24T11:37:47.679Z,6.90
2018-05-24T11:40:15.225Z,7.33
2018-05-24T11:42:42.700Z,6.73
2018-05-24T11:45:10.148Z,7.17
2018-05-24T11:47:37.917Z,7.37
2018-05-24T11:50:08.922Z,6.43
2018-05-24T11:52:37.115Z,6.20
2018-05-24T11:55:04.560Z,6.10
2018-05-24T11:57:32.386Z,6.00
2018-05-24T11:59:59.826Z,7.27
2018-05-24T12:02:27.349Z,6.50
2018-05-24T12:04:54.782Z,6.47
2018-05-24T12:07:22.214Z,5.83
2018-05-24T12:09:49.814Z,6.10
2018-05-24T12:12:17.274Z,6.07
2018-05-24T12:14:44.703Z,6.43
2018-05-24T12:17:12.906Z,6.00
2018-05-24T12:19:40.708Z,5.80
2018-05-24T12:22:08.945Z,5.30
2018-05-24T12:24:36.383Z,4.50
2018-05-24T12:27:03.827Z,4.50
2018-05-24T12:29:32.030Z,4.07
2018-05-24T12:31:59.458Z,4.27
2018-05-24T12:34:27.671Z,5.00
2018-05-24T12:36:55.118Z,4.57
2018-05-24T12:39:22.575Z,4.70
2018-05-24T12:41:50.101Z,4.43
2018-05-24T12:44:18.225Z,4.70
2018-05-24T12:46:45.646Z,4.57
2018-05-24T12:49:13.080Z,4.40
2018-05-24T12:51:41.285Z,4.10
2018-05-24T12:54:09.110Z,3.87
2018-05-24T12:56:36.551Z,4.30
2018-05-24T12:59:03.993Z,3.67
2018-05-24T13:01:31.422Z,3.30
2018-05-24T13:03:58.910Z,3.07
2018-05-24T13:06:26.295Z,2.90
2018-05-24T13:08:54.521Z,3.00
2018-05-24T13:11:22.008Z,3.70
2018-05-24T13:13:49.407Z,6.43
2018-05-24T13:16:16.847Z,8.27
2018-05-24T13:18:45.048Z,7.60
2018-05-24T13:21:12.560Z,7.00
2018-05-24T13:23:39.992Z,6.57
2018-05-24T13:26:07.434Z,7.50
2018-05-24T13:28:34.865Z,7.90
2018-05-24T13:31:02.295Z,6.37
2018-05-24T13:33:30.504Z,6.83
2018-05-24T13:35:57.998Z,6.10
2018-05-24T13:38:25.427Z,7.07
2018-05-24T13:40:52.882Z,6.17
2018-05-24T13:43:21.067Z,7.67
2018-05-24T13:45:48.527Z,7.30
2018-05-24T13:48:15.968Z,7.50
2018-05-24T13:50:43.410Z,7.77
2018-05-24T13:53:10.870Z,8.60
2018-05-24T13:55:38.337Z,7.97
2018-05-24T13:58:05.766Z,7.37
2018-05-24T14:00:33.199Z,7.77
2018-05-24T14:03:00.823Z,7.00
2018-05-24T14:05:28.280Z,7.30
2018-05-24T14:07:55.915Z,7.47
2018-05-24T14:10:23.355Z,7.00
2018-05-24T14:12:50.791Z,7.30
2018-05-24T14:15:19.002Z,7.10
2018-05-24T14:17:46.459Z,6.57
2018-05-24T14:20:13.913Z,7.47
2018-05-24T14:22:41.403Z,6.30
2018-05-24T14:25:08.842Z,6.70
2018-05-24T14:27:36.291Z,6.73
2018-05-24T14:30:03.714Z,6.60
2018-05-24T14:32:31.169Z,6.90
2018-05-24T14:34:58.604Z,6.20
2018-05-24T14:37:26.371Z,6.17
2018-05-24T14:39:53.846Z,6.00
2018-05-24T14:42:21.599Z,5.50
2018-05-24T14:44:49.564Z,5.50
2018-05-24T14:47:18.065Z,5.03
2018-05-24T14:49:45.683Z,5.83
2018-05-24T14:52:13.336Z,5.20
2018-05-24T14:54:41.177Z,5.60
2018-05-24T14:57:08.602Z,6.17
2018-05-24T14:59:36.037Z,5.07
2018-05-24T15:02:03.475Z,4.70
2018-05-24T15:04:31.302Z,4.63
2018-05-24T15:06:59.130Z,4.30
2018-05-24T15:09:27.319Z,4.03
2018-05-24T15:11:54.754Z,4.60
2018-05-24T15:14:22.183Z,5.50
2018-05-24T15:16:50.092Z,5.77
2018-05-24T15:19:17.551Z,5.07
2018-05-24T15:21:45.371Z,5.27
2018-05-24T15:24:12.819Z,4.80
2018-05-24T15:26:40.254Z,5.57
2018-05-24T15:29:07.698Z,5.30
2018-05-24T15:31:35.123Z,5.30
2018-05-24T15:34:02.965Z,5.57
2018-05-24T15:36:30.423Z,5.47
2018-05-24T15:38:57.858Z,4.77
2018-05-24T15:41:25.679Z,4.83
2018-05-24T15:43:53.882Z,4.20
2018-05-24T15:46:21.323Z,3.93
2018-05-24T15:48:48.764Z,3.27
2018-05-24T15:51:16.967Z,3.37
2018-05-24T15:53:44.410Z,3.37
2018-05-24T15:56:11.848Z,2.60
2018-05-24T15:58:40.066Z,2.87
2018-05-24T16:01:07.503Z,3.13
2018-05-24T16:03:34.931Z,2.77
2018-05-24T16:06:03.121Z,2.70
2018-05-24T16:08:31.434Z,2.70
2018-05-24T16:10:59.321Z,2.67
2018-05-24T16:13:26.782Z,2.73
2018-05-24T16:15:54.226Z,3.20
2018-05-24T16:18:22.081Z,3.13
2018-05-24T16:20:49.515Z,3.00
2018-05-24T16:23:17.358Z,3.03
2018-05-24T16:25:44.795Z,2.40
2018-05-24T16:28:12.995Z,3.40
2018-05-24T16:30:40.843Z,2.57
2018-05-24T16:33:09.365Z,2.90
2018-05-24T16:35:36.847Z,3.20
2018-05-24T16:38:04.275Z,2.70
2018-05-24T16:40:34.381Z,3.67
2018-05-24T16:43:07.931Z,2.60
2018-05-24T16:45:36.045Z,3.37
2018-05-24T16:48:03.475Z,2.80
2018-05-24T16:50:34.353Z,2.77
2018-05-24T16:53:02.555Z,2.73
2018-05-24T16:55:30.415Z,1.90
2018-05-24T16:57:58.611Z,2.63
2018-05-24T17:00:26.824Z,2.87
2018-05-24T17:02:55.029Z,2.90
2018-05-24T17:05:23.250Z,3.10
2018-05-24T17:07:51.464Z,3.37
2018-05-24T17:10:18.906Z,2.77
2018-05-24T17:12:46.726Z,3.47
2018-05-24T17:15:14.212Z,3.30
2018-05-24T17:17:43.397Z,2.33
2018-05-24T17:20:10.823Z,2.50
2018-05-24T17:22:38.664Z,3.30
2018-05-24T17:25:07.442Z,3.20
2018-05-24T17:27:34.864Z,2.90
2018-05-24T17:30:03.166Z,2.23
2018-05-24T17:32:30.793Z,2.60
2018-05-24T17:34:58.246Z,2.57
2018-05-24T17:37:25.820Z,2.23
2018-05-24T17:39:54.035Z,2.50
2018-05-24T17:42:21.493Z,2.53
2018-05-24T17:44:48.915Z,2.57
2018-05-24T17:47:16.347Z,2.60
2018-05-24T17:49:43.773Z,2.50
2018-05-24T17:52:11.226Z,2.30
2018-05-24T17:54:38.654Z,2.50
2018-05-24T17:57:06.870Z,2.70
2018-05-24T17:59:34.719Z,2.70
2018-05-24T18:02:02.160Z,2.57
2018-05-24T18:04:29.590Z,2.83
2018-05-24T18:06:57.033Z,2.30
2018-05-24T18:09:24.470Z,2.47
2018-05-24T18:11:51.912Z,2.40
2018-05-24T18:14:19.342Z,2.80
2018-05-24T18:16:46.777Z,2.90
2018-05-24T18:19:15.022Z,2.40
2018-05-24T18:21:42.454Z,2.57
2018-05-24T18:24:09.885Z,2.87
2018-05-24T18:26:37.321Z,2.80
2018-05-24T18:29:04.754Z,2.50
2018-05-24T18:31:32.969Z,2.77
2018-05-24T18:34:00.395Z,2.37
2018-05-24T18:36:27.834Z,2.17
2018-05-24T18:38:55.677Z,2.23
2018-05-24T18:41:23.123Z,2.40
2018-05-24T18:43:50.556Z,2.63
2018-05-24T18:46:18.005Z,2.43
2018-05-24T18:48:45.439Z,2.30
2018-05-24T18:51:13.650Z,1.97
2018-05-24T18:53:41.099Z,2.07
2018-05-24T18:56:08.583Z,2.17
2018-05-24T18:58:35.990Z,2.27
2018-05-24T19:01:03.878Z,2.80
2018-05-24T19:03:32.155Z,3.00
2018-05-24T19:05:59.583Z,2.83
2018-05-24T19:08:27.791Z,3.47
2018-05-24T19:10:58.569Z,3.50
2018-05-24T19:13:26.023Z,3.00
2018-05-24T19:15:53.827Z,3.60
2018-05-24T19:18:21.266Z,3.30
2018-05-24T19:20:49.481Z,3.20
2018-05-24T19:23:17.681Z,3.97
2018-05-24T19:25:45.125Z,3.70
2018-05-24T19:28:12.575Z,3.67
2018-05-24T19:30:40.010Z,3.13
2018-05-24T19:33:07.442Z,3.10
2018-05-24T19:35:34.884Z,4.30
2018-05-24T19:38:03.086Z,4.47
2018-05-24T19:40:30.915Z,4.50
2018-05-24T19:42:58.370Z,3.60
2018-05-24T19:45:25.791Z,3.50
2018-05-24T19:47:53.228Z,3.30
2018-05-24T19:50:20.679Z,3.60
2018-05-24T19:52:48.098Z,3.57
2018-05-24T19:55:15.528Z,3.93
2018-05-24T19:57:42.976Z,3.20
2018-05-24T20:00:10.411Z,3.53
2018-05-24T20:02:37.860Z,3.53
2018-05-24T20:05:05.283Z,3.80
2018-05-24T20:07:32.727Z,4.33
2018-05-24T20:10:01.223Z,3.00
2018-05-24T20:12:28.714Z,4.20
2018-05-24T20:14:56.206Z,3.60
2018-05-24T20:17:24.074Z,3.53
2018-05-24T20:19:51.519Z,3.93
2018-05-24T20:22:18.983Z,3.90
2018-05-24T20:24:46.405Z,3.53
2018-05-24T20:27:14.090Z,4.03
2018-05-24T20:29:42.443Z,3.87
2018-05-24T20:32:10.657Z,3.87
2018-05-24T20:34:38.905Z,3.90
2018-05-24T20:37:06.526Z,5.03
2018-05-24T20:39:34.742Z,3.67
2018-05-24T20:42:02.219Z,4.07
2018-05-24T20:44:29.695Z,5.50
2018-05-24T20:46:57.211Z,3.83
2018-05-24T20:49:24.798Z,3.90
2018-05-24T20:51:52.335Z,4.77
2018-05-24T20:54:19.877Z,4.17
2018-05-24T20:56:47.316Z,4.53
2018-05-24T20:59:14.760Z,4.13
2018-05-24T21:01:42.979Z,4.27
2018-05-24T21:04:11.032Z,3.67
2018-05-24T21:06:38.853Z,4.07
2018-05-24T21:09:06.294Z,4.20
2018-05-24T21:11:33.724Z,5.17
2018-05-24T21:14:01.180Z,4.70
2018-05-24T21:16:28.624Z,4.30
2018-05-24T21:18:56.064Z,4.40
2018-05-24T21:21:24.267Z,4.57
2018-05-24T21:23:51.890Z,4.37
2018-05-24T21:26:19.335Z,4.53
2018-05-24T21:28:47.540Z,4.47
2018-05-24T21:31:14.989Z,4.30
2018-05-24T21:33:42.818Z,4.30
2018-05-24T21:36:10.658Z,5.00
2018-05-24T21:38:38.478Z,4.60
2018-05-24T21:41:05.927Z,5.40
2018-05-24T21:43:34.115Z,5.27
2018-05-24T21:46:01.546Z,5.60
2018-05-24T21:48:29.735Z,5.63
2018-05-24T21:50:57.207Z,6.63
2018-05-24T21:53:25.378Z,6.20
2018-05-24T21:55:52.830Z,6.20
2018-05-24T21:58:20.259Z,6.30
2018-05-24T22:00:51.771Z,5.90
2018-05-24T22:03:19.204Z,6.13
2018-05-24T22:05:46.654Z,6.37
2018-05-24T22:08:14.083Z,6.30
2018-05-24T22:10:42.289Z,5.83
2018-05-24T22:13:10.869Z,6.17
2018-05-24T22:15:38.310Z,5.63
2018-05-24T22:18:05.755Z,6.73
2018-05-24T22:20:33.590Z,6.10
2018-05-24T22:23:01.035Z,6.43
2018-05-24T22:25:28.606Z,6.97
2018-05-24T22:27:57.707Z,6.37
2018-05-24T22:30:25.923Z,6.50
2018-05-24T22:32:53.342Z,6.73
2018-05-24T22:35:21.198Z,6.70
2018-05-24T22:37:48.626Z,6.77
2018-05-24T22:40:16.470Z,6.27
2018-05-24T22:42:43.895Z,6.60
2018-05-24T22:45:12.105Z,6.10
2018-05-24T22:47:48.831Z,6.80
2018-05-24T22:50:16.513Z,6.33
2018-05-24T22:52:45.952Z,5.40
2018-05-24T22:55:13.428Z,6.30
2018-05-24T22:57:40.862Z,6.10
2018-05-24T23:00:08.300Z,5.77
2018-05-24T23:02:36.135Z,5.30
2018-05-24T23:05:03.579Z,5.87
2018-05-24T23:07:31.764Z,6.37
2018-05-24T23:09:59.206Z,6.13
2018-05-24T23:12:26.647Z,7.90
2018-05-24T23:14:54.480Z,5.73
2018-05-24T23:17:21.929Z,5.50
2018-05-24T23:19:49.355Z,6.70
2018-05-24T23:22:28.739Z,5.73
2018-05-24T23:24:56.403Z,5.87
2018-05-24T23:27:24.228Z,6.23
2018-05-24T23:29:52.101Z,5.90
2018-05-24T23:32:20.314Z,6.80
2018-05-24T23:34:48.896Z,5.50
2018-05-24T23:37:16.344Z,5.90
2018-05-24T23:39:43.771Z,6.10
2018-05-24T23:42:11.981Z,4.87
2018-05-24T23:44:39.407Z,5.93
2018-05-24T23:47:06.843Z,5.73
2018-05-24T23:49:35.042Z,5.97
2018-05-24T23:52:02.475Z,5.60
2018-05-24T23:54:30.306Z,5.80
2018-05-24T23:56:57.754Z,5.57
2018-05-24T23:59:25.196Z,5.73
